sensor_id;sensor_type;location;lat;lon;timestamp;P1;durP1;ratioP1;P2;durP2;ratioP2
18653;SDS011;9456;47.824;16.228;2023-08-06T00:00:21;1999.90;;;999.90;;
18653;SDS011;9456;47.824;16.228;2023-08-06T00:02:50;1999.90;;;999.90;;
18653;SDS011;9456;47.824;16.228;2023-08-06T00:05:19;1999.90;;;999.90;;
18653;SDS011;9456;47.824;16.228;2023-08-06T00:07:49;1999.90;;;999.90;;
18653;SDS011;9456;47.824;16.228;2023-08-06T00:10:20;1999.90;;;999.90;;
18653;SDS011;9456;47.824;16.228;2023-08-06T00:12:49;1999.90;;;999.90;;
18653;SDS011;9456;47.824;16.228;2023-08-06T00:15:18;1999.90;;;999.90;;
18653;SDS011;9456;47.824;16.228;2023-08-06T00:17:47;1999.90;;;999.90;;
18653;SDS011;9456;47.824;16.228;2023-08-06T00:20:16;1999.90;;;999.90;;
18653;SDS011;9456;47.824;16.228;2023-08-06T00:22:45;1999.90;;;999.90;;
18653;SDS011;9456;47.824;16.228;2023-08-06T00:25:14;1999.90;;;999.90;;
18653;SDS011;9456;47.824;16.228;2023-08-06T00:30:25;1999.90;;;999.90;;
18653;SDS011;9456;47.824;16.228;2023-08-06T00:32:54;1999.90;;;999.90;;
18653;SDS011;9456;47.824;16.228;2023-08-06T00:35:23;1999.90;;;999.90;;
18653;SDS011;9456;47.824;16.228;2023-08-06T00:37:52;5.40;;;5.20;;
18653;SDS011;9456;47.824;16.228;2023-08-06T00:40:21;18.23;;;17.37;;
18653;SDS011;9456;47.824;16.228;2023-08-06T00:42:51;1999.90;;;999.90;;
18653;SDS011;9456;47.824;16.228;2023-08-06T00:45:20;25.00;;;23.90;;
18653;SDS011;9456;47.824;16.228;2023-08-06T00:47:49;5.17;;;4.97;;
18653;SDS011;9456;47.824;16.228;2023-08-06T00:50:18;8.50;;;8.20;;
18653;SDS011;9456;47.824;16.228;2023-08-06T00:52:47;22.40;;;20.87;;
18653;SDS011;9456;47.824;16.228;2023-08-06T00:55:16;1999.90;;;999.90;;
18653;SDS011;9456;47.824;16.228;2023-08-06T00:57:45;6.23;;;0.30;;
18653;SDS011;9456;47.824;16.228;2023-08-06T01:00:14;0.10;;;0.10;;
18653;SDS011;9456;47.824;16.228;2023-08-06T01:02:43;0.17;;;0.17;;
18653;SDS011;9456;47.824;16.228;2023-08-06T01:05:12;3.70;;;0.27;;
18653;SDS011;9456;47.824;16.228;2023-08-06T01:07:44;0.93;;;0.13;;
18653;SDS011;9456;47.824;16.228;2023-08-06T01:10:17;0.30;;;0.10;;
18653;SDS011;9456;47.824;16.228;2023-08-06T01:12:50;0.40;;;0.40;;
18653;SDS011;9456;47.824;16.228;2023-08-06T01:15:19;2.20;;;0.27;;
18653;SDS011;9456;47.824;16.228;2023-08-06T01:17:48;0.80;;;0.27;;
18653;SDS011;9456;47.824;16.228;2023-08-06T01:20:17;0.10;;;0.10;;
18653;SDS011;9456;47.824;16.228;2023-08-06T01:22:45;2.93;;;2.83;;
18653;SDS011;9456;47.824;16.228;2023-08-06T01:25:15;0.10;;;0.10;;
18653;SDS011;9456;47.824;16.228;2023-08-06T01:27:44;0.37;;;0.37;;
18653;SDS011;9456;47.824;16.228;2023-08-06T01:30:17;3.00;;;0.40;;
18653;SDS011;9456;47.824;16.228;2023-08-06T01:32:46;0.10;;;0.10;;
18653;SDS011;9456;47.824;16.228;2023-08-06T01:35:15;0.07;;;0.07;;
18653;SDS011;9456;47.824;16.228;2023-08-06T01:37:44;0.10;;;0.10;;
18653;SDS011;9456;47.824;16.228;2023-08-06T01:40:14;0.10;;;0.10;;
18653;SDS011;9456;47.824;16.228;2023-08-06T01:42:43;0.10;;;0.10;;
18653;SDS011;9456;47.824;16.228;2023-08-06T01:45:12;0.40;;;0.20;;
18653;SDS011;9456;47.824;16.228;2023-08-06T01:47:41;0.13;;;0.10;;
18653;SDS011;9456;47.824;16.228;2023-08-06T01:50:10;0.10;;;0.10;;
18653;SDS011;9456;47.824;16.228;2023-08-06T01:52:39;0.73;;;0.10;;
18653;SDS011;9456;47.824;16.228;2023-08-06T01:55:08;1.30;;;0.10;;
18653;SDS011;9456;47.824;16.228;2023-08-06T01:57:37;0.20;;;0.20;;
18653;SDS011;9456;47.824;16.228;2023-08-06T02:00:07;1.97;;;0.60;;
18653;SDS011;9456;47.824;16.228;2023-08-06T02:02:36;0.17;;;0.17;;
18653;SDS011;9456;47.824;16.228;2023-08-06T02:05:06;1.47;;;0.37;;
18653;SDS011;9456;47.824;16.228;2023-08-06T02:07:35;0.43;;;0.20;;
18653;SDS011;9456;47.824;16.228;2023-08-06T02:10:06;0.53;;;0.30;;
18653;SDS011;9456;47.824;16.228;2023-08-06T02:12:36;0.40;;;0.40;;
18653;SDS011;9456;47.824;16.228;2023-08-06T02:15:06;1.57;;;0.40;;
18653;SDS011;9456;47.824;16.228;2023-08-06T02:17:35;1.33;;;0.60;;
18653;SDS011;9456;47.824;16.228;2023-08-06T02:20:05;0.60;;;0.40;;
18653;SDS011;9456;47.824;16.228;2023-08-06T02:22:36;0.40;;;0.40;;
18653;SDS011;9456;47.824;16.228;2023-08-06T02:25:05;23.23;;;0.83;;
18653;SDS011;9456;47.824;16.228;2023-08-06T02:27:36;2.37;;;0.47;;
18653;SDS011;9456;47.824;16.228;2023-08-06T02:30:06;49.83;;;45.40;;
18653;SDS011;9456;47.824;16.228;2023-08-06T02:35:14;0.20;;;0.20;;
18653;SDS011;9456;47.824;16.228;2023-08-06T02:37:43;1.17;;;0.30;;
18653;SDS011;9456;47.824;16.228;2023-08-06T02:40:12;2.00;;;0.40;;
18653;SDS011;9456;47.824;16.228;2023-08-06T02:42:41;0.40;;;0.40;;
18653;SDS011;9456;47.824;16.228;2023-08-06T02:45:10;0.30;;;0.30;;
18653;SDS011;9456;47.824;16.228;2023-08-06T02:47:39;3.50;;;0.30;;
18653;SDS011;9456;47.824;16.228;2023-08-06T02:50:08;0.30;;;0.30;;
18653;SDS011;9456;47.824;16.228;2023-08-06T02:52:37;0.37;;;0.37;;
18653;SDS011;9456;47.824;16.228;2023-08-06T02:55:07;1.17;;;0.33;;
18653;SDS011;9456;47.824;16.228;2023-08-06T02:57:36;0.40;;;0.40;;
18653;SDS011;9456;47.824;16.228;2023-08-06T03:00:06;0.37;;;0.37;;
18653;SDS011;9456;47.824;16.228;2023-08-06T03:02:36;1.03;;;0.40;;
18653;SDS011;9456;47.824;16.228;2023-08-06T03:05:05;0.73;;;0.20;;
18653;SDS011;9456;47.824;16.228;2023-08-06T03:07:34;2.20;;;0.73;;
18653;SDS011;9456;47.824;16.228;2023-08-06T03:10:03;0.40;;;0.40;;
18653;SDS011;9456;47.824;16.228;2023-08-06T03:12:33;0.50;;;0.50;;
18653;SDS011;9456;47.824;16.228;2023-08-06T03:15:02;0.70;;;0.70;;
18653;SDS011;9456;47.824;16.228;2023-08-06T03:17:31;0.53;;;0.53;;
18653;SDS011;9456;47.824;16.228;2023-08-06T03:20:00;0.70;;;0.70;;
18653;SDS011;9456;47.824;16.228;2023-08-06T03:22:29;0.63;;;0.63;;
18653;SDS011;9456;47.824;16.228;2023-08-06T03:24:58;0.63;;;0.63;;
18653;SDS011;9456;47.824;16.228;2023-08-06T03:27:27;0.97;;;0.83;;
18653;SDS011;9456;47.824;16.228;2023-08-06T03:29:56;1.90;;;0.93;;
18653;SDS011;9456;47.824;16.228;2023-08-06T03:32:25;0.90;;;0.90;;
18653;SDS011;9456;47.824;16.228;2023-08-06T03:35:01;2.20;;;0.60;;
18653;SDS011;9456;47.824;16.228;2023-08-06T03:37:30;3.50;;;0.87;;
18653;SDS011;9456;47.824;16.228;2023-08-06T03:39:59;0.50;;;0.50;;
18653;SDS011;9456;47.824;16.228;2023-08-06T03:42:28;1.00;;;0.93;;
18653;SDS011;9456;47.824;16.228;2023-08-06T03:44:57;0.80;;;0.80;;
18653;SDS011;9456;47.824;16.228;2023-08-06T03:47:25;0.77;;;0.77;;
18653;SDS011;9456;47.824;16.228;2023-08-06T03:49:54;1.00;;;1.00;;
18653;SDS011;9456;47.824;16.228;2023-08-06T03:52:23;1.10;;;1.00;;
18653;SDS011;9456;47.824;16.228;2023-08-06T03:54:52;6.53;;;0.90;;
18653;SDS011;9456;47.824;16.228;2023-08-06T03:57:21;0.80;;;0.80;;
18653;SDS011;9456;47.824;16.228;2023-08-06T03:59:50;2.10;;;0.80;;
18653;SDS011;9456;47.824;16.228;2023-08-06T04:02:19;0.80;;;0.80;;
18653;SDS011;9456;47.824;16.228;2023-08-06T04:04:48;1.47;;;0.77;;
18653;SDS011;9456;47.824;16.228;2023-08-06T04:07:17;0.77;;;0.77;;
18653;SDS011;9456;47.824;16.228;2023-08-06T04:09:51;0.93;;;0.77;;
18653;SDS011;9456;47.824;16.228;2023-08-06T04:12:21;0.70;;;0.70;;
18653;SDS011;9456;47.824;16.228;2023-08-06T04:14:50;0.87;;;0.87;;
18653;SDS011;9456;47.824;16.228;2023-08-06T04:17:20;6.20;;;1.80;;
18653;SDS011;9456;47.824;16.228;2023-08-06T04:19:50;0.90;;;0.90;;
18653;SDS011;9456;47.824;16.228;2023-08-06T04:22:17;1.57;;;0.90;;
18653;SDS011;9456;47.824;16.228;2023-08-06T04:24:46;0.90;;;0.90;;
18653;SDS011;9456;47.824;16.228;2023-08-06T04:27:15;1.90;;;1.00;;
18653;SDS011;9456;47.824;16.228;2023-08-06T04:29:44;1.10;;;0.90;;
18653;SDS011;9456;47.824;16.228;2023-08-06T04:32:13;0.97;;;0.97;;
18653;SDS011;9456;47.824;16.228;2023-08-06T04:34:43;1.13;;;0.83;;
18653;SDS011;9456;47.824;16.228;2023-08-06T04:39:57;1.20;;;1.00;;
18653;SDS011;9456;47.824;16.228;2023-08-06T04:42:26;1.40;;;1.30;;
18653;SDS011;9456;47.824;16.228;2023-08-06T04:44:55;1.13;;;1.00;;
18653;SDS011;9456;47.824;16.228;2023-08-06T04:47:24;0.90;;;0.90;;
18653;SDS011;9456;47.824;16.228;2023-08-06T04:49:53;1.50;;;1.17;;
18653;SDS011;9456;47.824;16.228;2023-08-06T04:52:21;1.20;;;1.00;;
18653;SDS011;9456;47.824;16.228;2023-08-06T04:54:52;1.03;;;0.97;;
18653;SDS011;9456;47.824;16.228;2023-08-06T04:57:22;1.00;;;1.00;;
18653;SDS011;9456;47.824;16.228;2023-08-06T04:59:51;1.20;;;1.10;;
18653;SDS011;9456;47.824;16.228;2023-08-06T05:02:21;1.50;;;1.40;;
18653;SDS011;9456;47.824;16.228;2023-08-06T05:04:50;0.93;;;0.93;;
18653;SDS011;9456;47.824;16.228;2023-08-06T05:07:19;1.20;;;1.10;;
18653;SDS011;9456;47.824;16.228;2023-08-06T05:09:48;1.30;;;1.20;;
18653;SDS011;9456;47.824;16.228;2023-08-06T05:12:17;0.93;;;0.93;;
18653;SDS011;9456;47.824;16.228;2023-08-06T05:14:47;1.50;;;1.40;;
18653;SDS011;9456;47.824;16.228;2023-08-06T05:17:16;1.00;;;1.00;;
18653;SDS011;9456;47.824;16.228;2023-08-06T05:19:46;1.40;;;1.10;;
18653;SDS011;9456;47.824;16.228;2023-08-06T05:22:15;1.00;;;1.00;;
18653;SDS011;9456;47.824;16.228;2023-08-06T05:24:45;1.20;;;1.10;;
18653;SDS011;9456;47.824;16.228;2023-08-06T05:27:16;0.97;;;0.97;;
18653;SDS011;9456;47.824;16.228;2023-08-06T05:29:48;0.87;;;0.87;;
18653;SDS011;9456;47.824;16.228;2023-08-06T05:32:15;1.20;;;1.20;;
18653;SDS011;9456;47.824;16.228;2023-08-06T05:34:43;1.03;;;1.00;;
18653;SDS011;9456;47.824;16.228;2023-08-06T05:37:12;1.07;;;1.07;;
18653;SDS011;9456;47.824;16.228;2023-08-06T05:39:41;0.90;;;0.90;;
18653;SDS011;9456;47.824;16.228;2023-08-06T05:42:10;1.00;;;1.00;;
18653;SDS011;9456;47.824;16.228;2023-08-06T05:44:39;0.93;;;0.93;;
18653;SDS011;9456;47.824;16.228;2023-08-06T05:47:08;1.00;;;1.00;;
18653;SDS011;9456;47.824;16.228;2023-08-06T05:49:37;0.80;;;0.80;;
18653;SDS011;9456;47.824;16.228;2023-08-06T05:52:07;0.80;;;0.80;;
18653;SDS011;9456;47.824;16.228;2023-08-06T05:54:36;1.30;;;1.20;;
18653;SDS011;9456;47.824;16.228;2023-08-06T05:57:06;1.00;;;1.00;;
18653;SDS011;9456;47.824;16.228;2023-08-06T05:59:36;1.20;;;1.03;;
18653;SDS011;9456;47.824;16.228;2023-08-06T06:02:05;0.80;;;0.80;;
18653;SDS011;9456;47.824;16.228;2023-08-06T06:04:34;0.80;;;0.80;;
18653;SDS011;9456;47.824;16.228;2023-08-06T06:07:03;1.03;;;1.03;;
18653;SDS011;9456;47.824;16.228;2023-08-06T06:09:32;1.03;;;1.03;;
18653;SDS011;9456;47.824;16.228;2023-08-06T06:12:01;1.17;;;1.17;;
18653;SDS011;9456;47.824;16.228;2023-08-06T06:14:31;1.07;;;1.07;;
18653;SDS011;9456;47.824;16.228;2023-08-06T06:17:00;1.20;;;1.20;;
18653;SDS011;9456;47.824;16.228;2023-08-06T06:19:28;1.17;;;1.17;;
18653;SDS011;9456;47.824;16.228;2023-08-06T06:21:57;1.00;;;1.00;;
18653;SDS011;9456;47.824;16.228;2023-08-06T06:24:26;1.00;;;1.00;;
18653;SDS011;9456;47.824;16.228;2023-08-06T06:26:55;0.87;;;0.87;;
18653;SDS011;9456;47.824;16.228;2023-08-06T06:29:24;1.10;;;1.10;;
18653;SDS011;9456;47.824;16.228;2023-08-06T06:31:55;1.00;;;1.00;;
18653;SDS011;9456;47.824;16.228;2023-08-06T06:34:23;0.80;;;0.80;;
18653;SDS011;9456;47.824;16.228;2023-08-06T06:36:52;0.80;;;0.80;;
18653;SDS011;9456;47.824;16.228;2023-08-06T06:39:21;1.10;;;1.10;;
18653;SDS011;9456;47.824;16.228;2023-08-06T06:41:55;1.00;;;1.00;;
18653;SDS011;9456;47.824;16.228;2023-08-06T06:44:23;0.87;;;0.87;;
18653;SDS011;9456;47.824;16.228;2023-08-06T06:46:52;1.87;;;0.90;;
18653;SDS011;9456;47.824;16.228;2023-08-06T06:49:21;1.03;;;1.03;;
18653;SDS011;9456;47.824;16.228;2023-08-06T06:51:50;1.27;;;1.00;;
18653;SDS011;9456;47.824;16.228;2023-08-06T06:54:19;0.70;;;0.70;;
18653;SDS011;9456;47.824;16.228;2023-08-06T06:56:48;1.03;;;0.97;;
18653;SDS011;9456;47.824;16.228;2023-08-06T06:59:17;0.80;;;0.80;;
18653;SDS011;9456;47.824;16.228;2023-08-06T07:01:47;0.87;;;0.87;;
18653;SDS011;9456;47.824;16.228;2023-08-06T07:04:16;1.00;;;1.00;;
18653;SDS011;9456;47.824;16.228;2023-08-06T07:06:45;0.97;;;0.90;;
18653;SDS011;9456;47.824;16.228;2023-08-06T07:09:14;1.40;;;1.30;;
18653;SDS011;9456;47.824;16.228;2023-08-06T07:11:43;1.30;;;1.20;;
18653;SDS011;9456;47.824;16.228;2023-08-06T07:14:12;1.13;;;0.90;;
18653;SDS011;9456;47.824;16.228;2023-08-06T07:16:41;0.90;;;0.90;;
18653;SDS011;9456;47.824;16.228;2023-08-06T07:19:10;0.60;;;0.60;;
18653;SDS011;9456;47.824;16.228;2023-08-06T07:21:39;0.60;;;0.60;;
18653;SDS011;9456;47.824;16.228;2023-08-06T07:24:07;0.70;;;0.70;;
18653;SDS011;9456;47.824;16.228;2023-08-06T07:26:36;0.80;;;0.80;;
18653;SDS011;9456;47.824;16.228;2023-08-06T07:29:06;0.80;;;0.80;;
18653;SDS011;9456;47.824;16.228;2023-08-06T07:31:34;1.50;;;0.70;;
18653;SDS011;9456;47.824;16.228;2023-08-06T07:34:03;0.87;;;0.87;;
18653;SDS011;9456;47.824;16.228;2023-08-06T07:36:32;0.80;;;0.80;;
18653;SDS011;9456;47.824;16.228;2023-08-06T07:39:01;0.90;;;0.90;;
18653;SDS011;9456;47.824;16.228;2023-08-06T07:41:31;1.10;;;1.00;;
18653;SDS011;9456;47.824;16.228;2023-08-06T07:44:06;0.80;;;0.80;;
18653;SDS011;9456;47.824;16.228;2023-08-06T07:46:35;0.90;;;0.90;;
18653;SDS011;9456;47.824;16.228;2023-08-06T07:49:04;0.87;;;0.87;;
18653;SDS011;9456;47.824;16.228;2023-08-06T07:51:33;1.40;;;1.10;;
18653;SDS011;9456;47.824;16.228;2023-08-06T07:54:02;1.00;;;1.00;;
18653;SDS011;9456;47.824;16.228;2023-08-06T07:56:31;1.03;;;1.03;;
18653;SDS011;9456;47.824;16.228;2023-08-06T07:58:59;1.07;;;1.07;;
18653;SDS011;9456;47.824;16.228;2023-08-06T08:01:28;0.90;;;0.90;;
18653;SDS011;9456;47.824;16.228;2023-08-06T08:03:57;1.00;;;1.00;;
18653;SDS011;9456;47.824;16.228;2023-08-06T08:06:26;0.83;;;0.83;;
18653;SDS011;9456;47.824;16.228;2023-08-06T08:08:55;1.00;;;1.00;;
18653;SDS011;9456;47.824;16.228;2023-08-06T08:11:25;1.70;;;0.90;;
18653;SDS011;9456;47.824;16.228;2023-08-06T08:13:54;1.10;;;1.10;;
18653;SDS011;9456;47.824;16.228;2023-08-06T08:16:23;0.93;;;0.93;;
18653;SDS011;9456;47.824;16.228;2023-08-06T08:18:51;1.47;;;1.40;;
18653;SDS011;9456;47.824;16.228;2023-08-06T08:21:20;1.73;;;1.13;;
18653;SDS011;9456;47.824;16.228;2023-08-06T08:23:50;1.40;;;1.30;;
18653;SDS011;9456;47.824;16.228;2023-08-06T08:26:19;1.23;;;1.10;;
18653;SDS011;9456;47.824;16.228;2023-08-06T08:28:48;1.10;;;1.00;;
18653;SDS011;9456;47.824;16.228;2023-08-06T08:31:17;1.30;;;1.30;;
18653;SDS011;9456;47.824;16.228;2023-08-06T08:33:46;1.27;;;1.23;;
18653;SDS011;9456;47.824;16.228;2023-08-06T08:36:15;2.30;;;1.37;;
18653;SDS011;9456;47.824;16.228;2023-08-06T08:38:44;1.20;;;1.20;;
18653;SDS011;9456;47.824;16.228;2023-08-06T08:41:13;1.20;;;1.20;;
18653;SDS011;9456;47.824;16.228;2023-08-06T08:43:42;1.67;;;1.33;;
18653;SDS011;9456;47.824;16.228;2023-08-06T08:46:11;1.20;;;1.20;;
18653;SDS011;9456;47.824;16.228;2023-08-06T08:48:40;2.10;;;1.30;;
18653;SDS011;9456;47.824;16.228;2023-08-06T08:51:09;2.30;;;1.50;;
18653;SDS011;9456;47.824;16.228;2023-08-06T08:53:39;1.57;;;1.47;;
18653;SDS011;9456;47.824;16.228;2023-08-06T08:56:08;2.20;;;1.20;;
18653;SDS011;9456;47.824;16.228;2023-08-06T08:58:37;1.30;;;1.30;;
18653;SDS011;9456;47.824;16.228;2023-08-06T09:01:06;1.30;;;1.27;;
18653;SDS011;9456;47.824;16.228;2023-08-06T09:03:35;1.07;;;1.07;;
18653;SDS011;9456;47.824;16.228;2023-08-06T09:06:04;1.97;;;1.70;;
18653;SDS011;9456;47.824;16.228;2023-08-06T09:08:34;1.50;;;1.40;;
18653;SDS011;9456;47.824;16.228;2023-08-06T09:11:03;2.20;;;1.40;;
18653;SDS011;9456;47.824;16.228;2023-08-06T09:13:31;2.43;;;1.67;;
18653;SDS011;9456;47.824;16.228;2023-08-06T09:16:00;2.33;;;1.50;;
18653;SDS011;9456;47.824;16.228;2023-08-06T09:18:30;1.43;;;1.33;;
18653;SDS011;9456;47.824;16.228;2023-08-06T09:20:59;1.57;;;1.43;;
18653;SDS011;9456;47.824;16.228;2023-08-06T09:23:29;1.23;;;1.23;;
18653;SDS011;9456;47.824;16.228;2023-08-06T09:25:57;1.60;;;1.50;;
18653;SDS011;9456;47.824;16.228;2023-08-06T09:28:29;1.37;;;1.27;;
18653;SDS011;9456;47.824;16.228;2023-08-06T09:33:59;1.30;;;1.30;;
18653;SDS011;9456;47.824;16.228;2023-08-06T09:36:28;1.30;;;1.20;;
18653;SDS011;9456;47.824;16.228;2023-08-06T09:38:57;1.77;;;1.50;;
18653;SDS011;9456;47.824;16.228;2023-08-06T09:41:27;1.40;;;1.30;;
18653;SDS011;9456;47.824;16.228;2023-08-06T09:43:56;1.77;;;1.50;;
18653;SDS011;9456;47.824;16.228;2023-08-06T09:46:24;2.20;;;1.30;;
18653;SDS011;9456;47.824;16.228;2023-08-06T09:48:54;1.70;;;1.60;;
18653;SDS011;9456;47.824;16.228;2023-08-06T09:51:23;1.80;;;1.70;;
18653;SDS011;9456;47.824;16.228;2023-08-06T09:53:52;2.30;;;1.50;;
18653;SDS011;9456;47.824;16.228;2023-08-06T09:56:21;1.77;;;1.50;;
18653;SDS011;9456;47.824;16.228;2023-08-06T09:58:49;1.67;;;1.57;;
18653;SDS011;9456;47.824;16.228;2023-08-06T10:01:18;2.03;;;1.30;;
18653;SDS011;9456;47.824;16.228;2023-08-06T10:03:47;1.50;;;1.40;;
18653;SDS011;9456;47.824;16.228;2023-08-06T10:06:16;2.10;;;1.77;;
18653;SDS011;9456;47.824;16.228;2023-08-06T10:08:46;2.20;;;1.40;;
18653;SDS011;9456;47.824;16.228;2023-08-06T10:11:15;1.63;;;1.53;;
18653;SDS011;9456;47.824;16.228;2023-08-06T10:13:44;1.33;;;1.33;;
18653;SDS011;9456;47.824;16.228;2023-08-06T10:16:12;2.40;;;1.60;;
18653;SDS011;9456;47.824;16.228;2023-08-06T10:18:41;1.60;;;1.50;;
18653;SDS011;9456;47.824;16.228;2023-08-06T10:21:10;2.10;;;1.50;;
18653;SDS011;9456;47.824;16.228;2023-08-06T10:23:40;1.93;;;1.70;;
18653;SDS011;9456;47.824;16.228;2023-08-06T10:26:08;1.87;;;1.77;;
18653;SDS011;9456;47.824;16.228;2023-08-06T10:28:37;1.60;;;1.50;;
18653;SDS011;9456;47.824;16.228;2023-08-06T10:31:06;5.10;;;1.70;;
18653;SDS011;9456;47.824;16.228;2023-08-06T10:33:41;3.23;;;1.73;;
18653;SDS011;9456;47.824;16.228;2023-08-06T10:36:10;1.53;;;1.43;;
18653;SDS011;9456;47.824;16.228;2023-08-06T10:38:46;2.00;;;1.80;;
18653;SDS011;9456;47.824;16.228;2023-08-06T10:41:21;1.77;;;1.67;;
18653;SDS011;9456;47.824;16.228;2023-08-06T10:43:51;2.13;;;1.80;;
18653;SDS011;9456;47.824;16.228;2023-08-06T10:46:26;2.20;;;1.37;;
18653;SDS011;9456;47.824;16.228;2023-08-06T10:48:55;1.70;;;1.60;;
18653;SDS011;9456;47.824;16.228;2023-08-06T10:51:24;1.80;;;1.60;;
18653;SDS011;9456;47.824;16.228;2023-08-06T10:53:53;1.60;;;1.50;;
18653;SDS011;9456;47.824;16.228;2023-08-06T10:56:22;3.03;;;1.90;;
18653;SDS011;9456;47.824;16.228;2023-08-06T10:58:51;2.30;;;2.10;;
18653;SDS011;9456;47.824;16.228;2023-08-06T11:01:19;3.23;;;1.90;;
18653;SDS011;9456;47.824;16.228;2023-08-06T11:03:48;2.10;;;1.40;;
18653;SDS011;9456;47.824;16.228;2023-08-06T11:06:18;1.60;;;1.50;;
18653;SDS011;9456;47.824;16.228;2023-08-06T11:08:48;1.23;;;1.20;;
18653;SDS011;9456;47.824;16.228;2023-08-06T11:11:17;1.50;;;1.40;;
18653;SDS011;9456;47.824;16.228;2023-08-06T11:13:46;1.50;;;1.50;;
18653;SDS011;9456;47.824;16.228;2023-08-06T11:16:14;1.60;;;1.50;;
18653;SDS011;9456;47.824;16.228;2023-08-06T11:18:43;2.40;;;2.13;;
18653;SDS011;9456;47.824;16.228;2023-08-06T11:21:12;1.67;;;1.57;;
18653;SDS011;9456;47.824;16.228;2023-08-06T11:23:41;1.80;;;1.70;;
18653;SDS011;9456;47.824;16.228;2023-08-06T11:26:10;3.60;;;2.00;;
18653;SDS011;9456;47.824;16.228;2023-08-06T11:28:39;1.80;;;1.70;;
18653;SDS011;9456;47.824;16.228;2023-08-06T11:31:16;6.03;;;5.43;;
18653;SDS011;9456;47.824;16.228;2023-08-06T11:33:48;3.00;;;2.30;;
18653;SDS011;9456;47.824;16.228;2023-08-06T11:36:27;1.50;;;1.40;;
18653;SDS011;9456;47.824;16.228;2023-08-06T11:38:57;1.60;;;1.50;;
18653;SDS011;9456;47.824;16.228;2023-08-06T11:41:26;2.73;;;1.53;;
18653;SDS011;9456;47.824;16.228;2023-08-06T11:43:56;1.50;;;1.40;;
18653;SDS011;9456;47.824;16.228;2023-08-06T11:46:25;2.67;;;1.57;;
18653;SDS011;9456;47.824;16.228;2023-08-06T11:48:54;2.63;;;1.63;;
18653;SDS011;9456;47.824;16.228;2023-08-06T11:51:23;1.97;;;1.60;;
18653;SDS011;9456;47.824;16.228;2023-08-06T11:53:55;3.60;;;1.50;;
18653;SDS011;9456;47.824;16.228;2023-08-06T11:56:24;1.30;;;1.20;;
18653;SDS011;9456;47.824;16.228;2023-08-06T11:58:53;1.90;;;1.80;;
18653;SDS011;9456;47.824;16.228;2023-08-06T12:01:22;1.70;;;1.53;;
18653;SDS011;9456;47.824;16.228;2023-08-06T12:03:51;1.87;;;1.30;;
18653;SDS011;9456;47.824;16.228;2023-08-06T12:06:20;1.60;;;1.50;;
18653;SDS011;9456;47.824;16.228;2023-08-06T12:08:49;2.53;;;1.40;;
18653;SDS011;9456;47.824;16.228;2023-08-06T12:11:20;1.80;;;1.70;;
18653;SDS011;9456;47.824;16.228;2023-08-06T12:13:51;1.50;;;1.40;;
18653;SDS011;9456;47.824;16.228;2023-08-06T12:16:20;1.93;;;1.83;;
18653;SDS011;9456;47.824;16.228;2023-08-06T12:18:49;2.20;;;2.00;;
18653;SDS011;9456;47.824;16.228;2023-08-06T12:21:18;2.03;;;1.80;;
18653;SDS011;9456;47.824;16.228;2023-08-06T12:23:47;1.87;;;1.77;;
18653;SDS011;9456;47.824;16.228;2023-08-06T12:26:15;1.70;;;1.60;;
18653;SDS011;9456;47.824;16.228;2023-08-06T12:28:44;1.83;;;1.67;;
18653;SDS011;9456;47.824;16.228;2023-08-06T12:31:13;11.00;;;2.00;;
18653;SDS011;9456;47.824;16.228;2023-08-06T12:33:42;2.00;;;1.80;;
18653;SDS011;9456;47.824;16.228;2023-08-06T12:36:11;1.73;;;1.63;;
18653;SDS011;9456;47.824;16.228;2023-08-06T12:38:40;2.30;;;1.63;;
18653;SDS011;9456;47.824;16.228;2023-08-06T12:41:09;3.17;;;2.07;;
18653;SDS011;9456;47.824;16.228;2023-08-06T12:43:38;1.70;;;1.50;;
18653;SDS011;9456;47.824;16.228;2023-08-06T12:46:07;1.80;;;1.60;;
18653;SDS011;9456;47.824;16.228;2023-08-06T12:48:35;1.70;;;1.60;;
18653;SDS011;9456;47.824;16.228;2023-08-06T12:51:04;1.70;;;1.60;;
18653;SDS011;9456;47.824;16.228;2023-08-06T12:53:33;3.20;;;1.50;;
18653;SDS011;9456;47.824;16.228;2023-08-06T12:56:03;1.60;;;1.50;;
18653;SDS011;9456;47.824;16.228;2023-08-06T12:58:32;3.20;;;1.67;;
18653;SDS011;9456;47.824;16.228;2023-08-06T13:01:01;4.33;;;1.80;;
18653;SDS011;9456;47.824;16.228;2023-08-06T13:03:30;1.77;;;1.50;;
18653;SDS011;9456;47.824;16.228;2023-08-06T13:05:59;1.63;;;1.53;;
18653;SDS011;9456;47.824;16.228;2023-08-06T13:08:28;1.70;;;1.60;;
18653;SDS011;9456;47.824;16.228;2023-08-06T13:10:56;1.63;;;1.53;;
18653;SDS011;9456;47.824;16.228;2023-08-06T13:13:25;3.00;;;1.90;;
18653;SDS011;9456;47.824;16.228;2023-08-06T13:15:54;1999.90;;;999.90;;
18653;SDS011;9456;47.824;16.228;2023-08-06T13:18:23;1999.90;;;999.90;;
18653;SDS011;9456;47.824;16.228;2023-08-06T13:20:53;146.43;;;133.17;;
18653;SDS011;9456;47.824;16.228;2023-08-06T13:23:22;0.93;;;0.90;;
18653;SDS011;9456;47.824;16.228;2023-08-06T13:25:51;0.53;;;0.53;;
18653;SDS011;9456;47.824;16.228;2023-08-06T13:28:20;1.40;;;0.80;;
18653;SDS011;9456;47.824;16.228;2023-08-06T13:30:50;4.03;;;1.10;;
18653;SDS011;9456;47.824;16.228;2023-08-06T13:33:19;0.73;;;0.73;;
18653;SDS011;9456;47.824;16.228;2023-08-06T13:35:48;1.17;;;0.80;;
18653;SDS011;9456;47.824;16.228;2023-08-06T13:38:17;0.90;;;0.70;;
18653;SDS011;9456;47.824;16.228;2023-08-06T13:40:46;0.73;;;0.73;;
18653;SDS011;9456;47.824;16.228;2023-08-06T13:43:14;1.20;;;0.90;;
18653;SDS011;9456;47.824;16.228;2023-08-06T13:45:43;0.60;;;0.60;;
18653;SDS011;9456;47.824;16.228;2023-08-06T13:48:12;0.60;;;0.60;;
18653;SDS011;9456;47.824;16.228;2023-08-06T13:50:41;0.67;;;0.67;;
18653;SDS011;9456;47.824;16.228;2023-08-06T13:53:10;0.60;;;0.60;;
18653;SDS011;9456;47.824;16.228;2023-08-06T13:55:39;1.40;;;0.60;;
18653;SDS011;9456;47.824;16.228;2023-08-06T13:58:09;0.73;;;0.73;;
18653;SDS011;9456;47.824;16.228;2023-08-06T14:00:38;0.70;;;0.70;;
18653;SDS011;9456;47.824;16.228;2023-08-06T14:03:07;0.67;;;0.67;;
18653;SDS011;9456;47.824;16.228;2023-08-06T14:05:36;1.60;;;0.57;;
18653;SDS011;9456;47.824;16.228;2023-08-06T14:08:05;0.57;;;0.57;;
18653;SDS011;9456;47.824;16.228;2023-08-06T14:10:34;0.43;;;0.40;;
18653;SDS011;9456;47.824;16.228;2023-08-06T14:13:03;0.37;;;0.37;;
18653;SDS011;9456;47.824;16.228;2023-08-06T14:15:31;0.50;;;0.37;;
18653;SDS011;9456;47.824;16.228;2023-08-06T14:18:00;0.50;;;0.50;;
18653;SDS011;9456;47.824;16.228;2023-08-06T14:20:29;0.50;;;0.40;;
18653;SDS011;9456;47.824;16.228;2023-08-06T14:22:58;0.20;;;0.20;;
18653;SDS011;9456;47.824;16.228;2023-08-06T14:25:27;1.83;;;0.33;;
18653;SDS011;9456;47.824;16.228;2023-08-06T14:27:56;0.80;;;0.30;;
18653;SDS011;9456;47.824;16.228;2023-08-06T14:30:25;2.00;;;0.50;;
18653;SDS011;9456;47.824;16.228;2023-08-06T14:32:54;0.73;;;0.73;;
18653;SDS011;9456;47.824;16.228;2023-08-06T14:35:22;0.57;;;0.43;;
18653;SDS011;9456;47.824;16.228;2023-08-06T14:37:51;1.20;;;0.57;;
18653;SDS011;9456;47.824;16.228;2023-08-06T14:40:20;0.67;;;0.40;;
18653;SDS011;9456;47.824;16.228;2023-08-06T14:42:49;0.80;;;0.80;;
18653;SDS011;9456;47.824;16.228;2023-08-06T14:45:18;0.60;;;0.50;;
18653;SDS011;9456;47.824;16.228;2023-08-06T14:47:47;0.60;;;0.40;;
18653;SDS011;9456;47.824;16.228;2023-08-06T14:50:16;0.43;;;0.40;;
18653;SDS011;9456;47.824;16.228;2023-08-06T14:52:45;0.70;;;0.63;;
18653;SDS011;9456;47.824;16.228;2023-08-06T14:55:18;0.37;;;0.30;;
18653;SDS011;9456;47.824;16.228;2023-08-06T14:57:51;0.60;;;0.60;;
18653;SDS011;9456;47.824;16.228;2023-08-06T15:00:22;0.47;;;0.30;;
18653;SDS011;9456;47.824;16.228;2023-08-06T15:02:51;0.30;;;0.30;;
18653;SDS011;9456;47.824;16.228;2023-08-06T15:05:20;0.40;;;0.40;;